TimeAWST,TemperatureF,Dew PointF,Humidity,Sea Level PressureIn,VisibilityMPH,Wind Direction,Wind SpeedMPH,Gust SpeedMPH,PrecipitationIn,Events,Conditions,WindDirDegrees,DateUTC
12:00 AM,76,70,76,29.96,,Calm,Calm,,,,,,2012-10-12 16:00:00
12:00 AM,77.0,69.8,78,29.95,6.2,Calm,Calm,-,N/A,,Unknown,0,2012-10-12 16:00:00
12:30 AM,75.2,69.8,83,29.95,6.2,Calm,Calm,-,N/A,,Unknown,0,2012-10-12 16:30:00
1:00 AM,77.0,69.8,78,29.92,6.2,Calm,Calm,-,N/A,,Unknown,0,2012-10-12 17:00:00
1:30 AM,77.0,71.6,83,29.92,6.2,Calm,Calm,-,N/A,,Unknown,0,2012-10-12 17:30:00
2:00 AM,77.0,71.6,83,29.92,6.2,Calm,Calm,-,N/A,,Unknown,0,2012-10-12 18:00:00
2:30 AM,78.8,73.4,83,29.92,6.2,South,4.6,-,N/A,,Unknown,190,2012-10-12 18:30:00
3:00 AM,78,75,87,29.92,,SE,4.6,,,,,130,2012-10-12 19:00:00
3:00 AM,78.8,75.2,89,29.92,6.2,SE,4.6,-,N/A,,Unknown,130,2012-10-12 19:00:00
3:30 AM,73.4,68.0,83,29.92,6.2,NNE,4.6,-,N/A,,Unknown,20,2012-10-12 19:30:00
4:00 AM,73.4,68.0,83,29.92,6.2,NNE,2.3,-,N/A,,Unknown,30,2012-10-12 20:00:00
4:30 AM,73.4,69.8,88,29.92,6.2,NNE,3.5,-,N/A,,Unknown,20,2012-10-12 20:30:00
5:00 AM,72,69,86,29.94,,Calm,Calm,,,,,,2012-10-12 21:00:00
5:00 AM,71.6,68.0,88,29.95,6.2,Calm,Calm,-,N/A,,Unknown,0,2012-10-12 21:00:00
5:30 AM,73.4,69.8,88,29.95,-9999.0,Calm,Calm,-,N/A,,Clear,0,2012-10-12 21:30:00
6:00 AM,74,70,82,29.96,16,Calm,Calm,,,,Haze,,2012-10-12 22:00:00
6:00 AM,75.2,69.8,83,29.95,-9999.0,Calm,Calm,-,N/A,,Clear,0,2012-10-12 22:00:00
6:30 AM,77.0,69.8,78,29.95,-9999.0,NNE,3.5,-,N/A,,Clear,20,2012-10-12 22:30:00
7:00 AM,78.8,69.8,74,29.98,-9999.0,NE,3.5,-,N/A,,Clear,50,2012-10-12 23:00:00
7:30 AM,84.2,71.6,66,29.98,-9999.0,NE,2.3,-,N/A,,Clear,50,2012-10-12 23:30:00
8:00 AM,85,71,55,29.99,,NNW,2.3,,,,,340,2012-10-13 00:00:00
8:00 AM,86.0,71.6,62,29.98,-9999.0,NNW,2.3,-,N/A,,Clear,340,2012-10-13 00:00:00
8:30 AM,86.0,68.0,55,29.98,-9999.0,West,6.9,-,N/A,,Clear,270,2012-10-13 00:30:00
9:00 AM,87,69,46,29.99,19,West,9.2,,,,Partly Cloudy,270,2012-10-13 01:00:00
9:00 AM,87.8,69.8,55,29.98,-9999.0,West,9.2,-,N/A,,Clear,270,2012-10-13 01:00:00
9:30 AM,87.8,68.0,52,29.98,-9999.0,West,8.1,-,N/A,,Clear,260,2012-10-13 01:30:00
10:00 AM,87.8,68.0,52,29.98,6.2,West,9.2,-,N/A,,Unknown,270,2012-10-13 02:00:00
10:30 AM,87.8,66.2,49,29.95,6.2,West,10.4,-,N/A,,Partly Cloudy,260,2012-10-13 02:30:00
11:00 AM,88,69,45,29.96,,West,10.4,,,,,270,2012-10-13 03:00:00
11:00 AM,87.8,69.8,55,29.95,6.2,West,10.4,-,N/A,,Partly Cloudy,270,2012-10-13 03:00:00
11:30 AM,87.8,69.8,55,29.95,6.2,WSW,12.7,-,N/A,,Partly Cloudy,250,2012-10-13 03:30:00
12:00 PM,90,68,39,29.93,19,West,12.7,,,,Partly Cloudy,260,2012-10-13 04:00:00
12:00 PM,89.6,68.0,49,29.92,6.2,West,12.7,-,N/A,,Partly Cloudy,260,2012-10-13 04:00:00
12:30 PM,89.6,68.0,49,29.89,6.2,West,12.7,-,N/A,,Partly Cloudy,270,2012-10-13 04:30:00
1:00 PM,87.8,69.8,55,29.89,6.2,West,15.0,-,N/A,,Partly Cloudy,260,2012-10-13 05:00:00
1:30 PM,86.0,73.4,66,29.89,6.2,West,17.3,-,N/A,,Partly Cloudy,270,2012-10-13 05:30:00
2:00 PM,86,73,58,29.88,,West,15.0,,,,,270,2012-10-13 06:00:00
2:00 PM,86.0,73.4,66,29.86,6.2,West,15.0,-,N/A,,Partly Cloudy,270,2012-10-13 06:00:00
2:30 PM,87.8,73.4,62,29.86,6.2,West,16.1,-,N/A,,Partly Cloudy,280,2012-10-13 06:30:00
3:00 PM,85,74,64,29.87,19,West,17.3,,,,Partly Cloudy,270,2012-10-13 07:00:00
3:00 PM,84.2,75.2,74,29.86,6.2,West,17.3,-,N/A,,Partly Cloudy,270,2012-10-13 07:00:00
3:30 PM,84.2,75.2,74,29.86,6.2,West,16.1,-,N/A,,Partly Cloudy,280,2012-10-13 07:30:00
4:00 PM,84.2,75.2,74,29.86,6.2,WNW,16.1,-,N/A,,Partly Cloudy,290,2012-10-13 08:00:00
5:00 PM,83,76,74,29.87,,WNW,15.0,,,,,290,2012-10-13 09:00:00
5:00 PM,82.4,75.2,79,29.86,6.2,WNW,15.0,-,N/A,,Partly Cloudy,290,2012-10-13 09:00:00
5:30 PM,82.4,75.2,79,29.86,-9999.0,West,10.4,-,N/A,,Clear,280,2012-10-13 09:30:00
6:00 PM,82.4,75.2,79,29.89,-9999.0,West,11.5,-,N/A,,Clear,260,2012-10-13 10:00:00
6:30 PM,80.6,75.2,84,29.92,-9999.0,West,9.2,-,N/A,,Clear,260,2012-10-13 10:30:00
7:00 PM,80.6,75.2,84,29.92,6.2,NNW,4.6,-,N/A,,Partly Cloudy,340,2012-10-13 11:00:00
7:30 PM,80.6,75.2,84,29.95,-9999.0,WSW,5.8,-,N/A,,Clear,250,2012-10-13 11:30:00
8:00 PM,81,74,75,29.94,,WSW,6.9,,,,,250,2012-10-13 12:00:00
8:00 PM,80.6,75.2,84,29.95,-9999.0,WSW,6.9,-,N/A,,Clear,250,2012-10-13 12:00:00
8:30 PM,80.6,75.2,84,29.95,-9999.0,SW,8.1,-,N/A,,Clear,230,2012-10-13 12:30:00
9:00 PM,80,75,80,29.96,19,SW,6.9,,,,Partly Cloudy,230,2012-10-13 13:00:00
9:00 PM,80.6,75.2,84,29.95,-9999.0,SW,6.9,-,N/A,,Clear,230,2012-10-13 13:00:00
9:30 PM,80.6,75.2,84,29.95,6.2,WSW,5.8,-,N/A,,Unknown,240,2012-10-13 13:30:00
10:00 PM,78.8,73.4,83,29.95,6.2,SSW,4.6,-,N/A,,Unknown,210,2012-10-13 14:00:00
10:30 PM,78.8,73.4,83,29.95,6.2,WSW,5.8,-,N/A,,Unknown,240,2012-10-13 14:30:00
11:00 PM,79,73,78,29.96,,SSW,4.6,,,,,200,2012-10-13 15:00:00
11:00 PM,78.8,73.4,83,29.95,6.2,SSW,4.6,-,N/A,,Unknown,200,2012-10-13 15:00:00
11:30 PM,78.8,73.4,83,29.95,6.2,SSW,6.9,-,N/A,,Unknown,210,2012-10-13 15:30:00